Terminal Aerodrome Forecast
Issued by NWS

Home | Current Version | Previous Version | Text Only | Print | Product List | Glossary On
Versions: 1 2 3 4 5 6 7 8 9 10 11 12 13 14 15 16 17 18 19 20 21 22 23 24 25 26 27
000
FTUS42 KJAX 011700
TAFVQQ
TAF
KVQQ 011723Z 0118/0218 04008KT P6SM VCSH BKN030 OVC060
     FM020000 04002KT P6SM SCT030 BKN060
     FM020700 00000KT 3SM BR BKN030 BKN060
      TEMPO 0208/0212 1SM BR BKN010
     FM021400 05006KT P6SM SCT030 BKN060=

USA.gov is the U.S. government's official web portal to all federal, state and local government web resources and services.